createdAt,value
2019-03-18T00:02:21.799Z,72.70
2019-03-18T00:04:50.225Z,73.70
2019-03-18T00:07:18.627Z,72.90
2019-03-18T00:09:47.009Z,72.90
2019-03-18T00:12:17.382Z,72.40
2019-03-18T00:14:45.414Z,72.20
2019-03-18T00:17:13.791Z,72.10
2019-03-18T00:19:43.080Z,72.30
2019-03-18T00:22:11.578Z,72.00
2019-03-18T00:24:40.029Z,72.70
2019-03-18T00:27:08.352Z,72.10
2019-03-18T00:29:36.696Z,72.00
2019-03-18T00:32:05.362Z,72.20
2019-03-18T00:34:36.653Z,72.70
2019-03-18T00:37:05.102Z,72.10
2019-03-18T00:39:33.514Z,72.50
2019-03-18T00:42:01.919Z,72.20
2019-03-18T00:44:30.341Z,72.20
2019-03-18T00:46:58.654Z,71.70
2019-03-18T00:49:27.136Z,71.90
2019-03-18T00:51:55.786Z,72.00
2019-03-18T00:54:24.341Z,72.30
2019-03-18T00:56:52.929Z,72.20
2019-03-18T00:59:21.460Z,72.30
2019-03-18T01:01:49.908Z,72.20
2019-03-18T01:04:18.234Z,73.10
2019-03-18T01:06:46.773Z,72.50
2019-03-18T01:09:15.215Z,72.90
2019-03-18T01:11:43.641Z,72.70
2019-03-18T01:14:12.064Z,72.60
2019-03-18T01:16:40.424Z,72.90
2019-03-18T01:19:08.871Z,72.50
2019-03-18T01:21:37.285Z,72.70
2019-03-18T01:24:05.704Z,73.00
2019-03-18T01:26:34.106Z,73.00
2019-03-18T01:29:02.519Z,73.30
2019-03-18T01:31:30.893Z,73.40
2019-03-18T01:33:59.484Z,73.50
2019-03-18T01:36:27.746Z,73.70
2019-03-18T01:38:56.185Z,73.70
2019-03-18T01:41:24.678Z,73.50
2019-03-18T01:43:53.128Z,73.20
2019-03-18T01:46:21.639Z,73.20
2019-03-18T01:48:52.801Z,73.00
2019-03-18T01:51:21.235Z,74.00
2019-03-18T01:53:49.644Z,73.10
2019-03-18T01:56:17.997Z,73.80
2019-03-18T01:58:46.497Z,73.10
2019-03-18T02:01:15.033Z,73.10
2019-03-18T02:03:43.553Z,73.00
2019-03-18T02:06:11.889Z,72.80
2019-03-18T02:08:40.343Z,73.60
2019-03-18T02:11:08.812Z,72.90
2019-03-18T02:13:37.337Z,72.90
2019-03-18T02:16:05.674Z,72.90
2019-03-18T02:18:34.172Z,72.90
2019-03-18T02:21:02.676Z,72.70
2019-03-18T02:23:31.031Z,72.40
2019-03-18T02:25:59.433Z,72.90
2019-03-18T02:28:27.969Z,72.70
2019-03-18T02:30:56.542Z,72.60
2019-03-18T02:33:24.929Z,72.60
2019-03-18T02:35:53.557Z,72.50
2019-03-18T02:38:21.941Z,72.30
2019-03-18T02:40:50.345Z,72.10
2019-03-18T02:43:18.670Z,72.20
2019-03-18T02:45:47.066Z,72.20
2019-03-18T02:48:15.484Z,72.30
2019-03-18T02:50:43.954Z,72.30
2019-03-18T02:53:12.312Z,72.20
2019-03-18T02:55:40.688Z,72.20
2019-03-18T02:58:09.066Z,72.30
2019-03-18T03:00:37.632Z,72.40
2019-03-18T03:03:06.062Z,72.30
2019-03-18T03:05:34.482Z,72.30
2019-03-18T03:08:05.861Z,72.50
2019-03-18T03:10:34.290Z,72.60
2019-03-18T03:13:02.672Z,73.00
2019-03-18T03:15:33.784Z,73.50
2019-03-18T03:18:02.208Z,73.50
2019-03-18T03:20:30.729Z,72.70
2019-03-18T03:22:59.146Z,72.60
2019-03-18T03:25:27.716Z,72.70
2019-03-18T03:27:56.135Z,72.90
2019-03-18T03:30:24.670Z,73.00
2019-03-18T03:32:53.064Z,73.20
2019-03-18T03:35:21.453Z,73.30
2019-03-18T03:37:49.802Z,73.10
2019-03-18T03:40:18.313Z,73.00
2019-03-18T03:42:46.738Z,73.10
2019-03-18T03:45:17.092Z,73.10
2019-03-18T03:47:45.508Z,73.30
2019-03-18T03:50:14.984Z,73.40
2019-03-18T03:52:43.486Z,73.50
2019-03-18T03:55:12.719Z,73.50
2019-03-18T03:57:41.098Z,74.30
2019-03-18T04:00:19.966Z,73.90
2019-03-18T04:02:48.367Z,74.10
2019-03-18T04:05:16.838Z,74.30
2019-03-18T04:07:45.299Z,74.10
2019-03-18T04:10:14.672Z,74.10
2019-03-18T04:12:43.065Z,74.10
2019-03-18T04:15:17.625Z,74.20
2019-03-18T04:17:46.085Z,74.40
2019-03-18T04:20:15.429Z,74.10
2019-03-18T04:22:43.969Z,74.20
2019-03-18T04:25:12.416Z,74.20
2019-03-18T04:27:40.808Z,74.30
2019-03-18T04:30:15.814Z,74.40
2019-03-18T04:32:44.217Z,74.40
2019-03-18T04:35:12.751Z,74.10
2019-03-18T04:37:41.073Z,74.40
2019-03-18T04:40:10.653Z,74.50
2019-03-18T04:42:39.043Z,74.80
2019-03-18T04:45:08.625Z,74.70
2019-03-18T04:47:37.078Z,74.70
2019-03-18T04:50:10.104Z,75.40
2019-03-18T04:52:38.646Z,74.60
2019-03-18T04:55:07.450Z,74.70
2019-03-18T04:57:35.941Z,74.50
2019-03-18T05:00:07.658Z,74.50
2019-03-18T05:02:38.798Z,74.50
2019-03-18T05:05:07.332Z,74.90
2019-03-18T05:07:35.741Z,74.50
2019-03-18T05:10:06.946Z,74.50
2019-03-18T05:12:35.319Z,74.30
2019-03-18T05:15:05.011Z,73.90
2019-03-18T05:17:33.462Z,73.90
2019-03-18T05:20:01.924Z,73.90
2019-03-18T05:22:30.322Z,73.70
2019-03-18T05:24:58.702Z,74.60
2019-03-18T05:27:27.114Z,73.70
2019-03-18T05:29:55.641Z,73.40
2019-03-18T05:32:24.106Z,73.50
2019-03-18T05:34:52.466Z,73.30
2019-03-18T05:37:20.857Z,73.40
2019-03-18T05:39:49.206Z,73.40
2019-03-18T05:42:17.565Z,72.90
2019-03-18T05:44:45.929Z,73.20
2019-03-18T05:47:14.363Z,72.40
2019-03-18T05:49:42.786Z,72.60
2019-03-18T05:52:11.429Z,72.10
2019-03-18T05:54:39.779Z,72.40
2019-03-18T05:57:08.162Z,72.30
2019-03-18T05:59:36.538Z,72.70
2019-03-18T06:02:04.935Z,72.20
2019-03-18T06:04:33.421Z,72.70
2019-03-18T06:07:01.945Z,72.60
2019-03-18T06:09:30.338Z,72.70
2019-03-18T06:11:58.740Z,72.70
2019-03-18T06:14:27.149Z,72.50
2019-03-18T06:16:55.602Z,72.50
2019-03-18T06:19:24.057Z,72.50
2019-03-18T06:21:52.396Z,72.20
2019-03-18T06:24:20.802Z,72.20
2019-03-18T06:26:49.319Z,72.20
2019-03-18T06:29:17.696Z,72.60
2019-03-18T06:31:46.182Z,72.30
2019-03-18T06:34:14.573Z,71.80
2019-03-18T06:36:42.903Z,72.00
2019-03-18T06:39:11.364Z,71.50
2019-03-18T06:41:39.769Z,71.20
2019-03-18T06:44:08.220Z,71.90
2019-03-18T06:46:36.662Z,71.30
2019-03-18T06:49:05.167Z,70.70
2019-03-18T06:51:33.521Z,70.90
2019-03-18T06:54:02.026Z,70.60
2019-03-18T06:56:30.620Z,70.50
2019-03-18T06:58:59.091Z,70.10
2019-03-18T07:01:27.504Z,70.10
2019-03-18T07:03:55.998Z,70.10
2019-03-18T07:06:24.403Z,70.30
2019-03-18T07:08:52.846Z,70.30
2019-03-18T07:11:21.222Z,69.80
2019-03-18T07:13:49.621Z,69.80
2019-03-18T07:16:18.056Z,69.00
2019-03-18T07:18:46.538Z,68.80
2019-03-18T07:21:15.053Z,70.90
2019-03-18T07:23:43.505Z,68.20
2019-03-18T07:26:12.015Z,68.30
2019-03-18T07:28:40.409Z,69.00
2019-03-18T07:31:08.818Z,68.60
2019-03-18T07:33:37.188Z,68.50
2019-03-18T07:36:05.730Z,68.60
2019-03-18T07:38:34.171Z,68.50
2019-03-18T07:41:02.499Z,67.90
2019-03-18T07:43:31.013Z,68.10
2019-03-18T07:45:59.411Z,68.50
2019-03-18T07:48:31.418Z,67.80
2019-03-18T07:50:57.937Z,68.40
2019-03-18T07:53:26.328Z,68.00
2019-03-18T07:55:55.228Z,68.60
2019-03-18T07:58:23.843Z,68.70
2019-03-18T08:00:52.363Z,68.60
2019-03-18T08:03:21.010Z,68.50
2019-03-18T08:05:49.332Z,68.30
2019-03-18T08:08:17.778Z,68.10
2019-03-18T08:10:46.122Z,67.60
2019-03-18T08:13:14.503Z,68.20
2019-03-18T08:15:42.978Z,66.80
2019-03-18T08:18:11.431Z,66.80
2019-03-18T08:20:39.698Z,67.00
2019-03-18T08:23:08.157Z,66.80
2019-03-18T08:25:41.958Z,66.70
2019-03-18T08:28:10.507Z,67.50
2019-03-18T08:30:38.964Z,66.40
2019-03-18T08:33:07.519Z,66.20
2019-03-18T08:35:36.832Z,66.40
2019-03-18T08:38:05.241Z,66.10
2019-03-18T08:40:33.576Z,65.50
2019-03-18T08:43:01.996Z,65.30
2019-03-18T08:45:30.424Z,66.60
2019-03-18T08:47:58.853Z,65.90
2019-03-18T08:50:27.284Z,65.90
2019-03-18T08:52:55.741Z,66.60
2019-03-18T08:55:24.381Z,66.20
2019-03-18T08:57:52.757Z,66.20
2019-03-18T09:00:21.068Z,65.90
2019-03-18T09:02:49.412Z,66.40
2019-03-18T09:05:17.820Z,66.20
2019-03-18T09:07:46.242Z,66.40
2019-03-18T09:10:15.588Z,66.50
2019-03-18T09:12:44.116Z,66.00
2019-03-18T09:15:12.897Z,65.60
2019-03-18T09:17:41.358Z,65.40
2019-03-18T09:20:16.777Z,64.90
2019-03-18T09:22:45.123Z,65.40
2019-03-18T09:25:13.552Z,65.30
2019-03-18T09:27:41.876Z,65.60
2019-03-18T09:30:16.497Z,66.40
2019-03-18T09:32:45.086Z,65.00
2019-03-18T09:35:13.633Z,64.80
2019-03-18T09:37:42.000Z,65.10
2019-03-18T09:40:17.929Z,65.10
2019-03-18T09:42:46.338Z,64.50
2019-03-18T09:45:18.220Z,64.30
2019-03-18T09:47:46.644Z,64.50
2019-03-18T09:50:15.198Z,64.20
2019-03-18T09:52:45.563Z,64.00
2019-03-18T09:55:13.925Z,64.90
2019-03-18T09:57:42.366Z,62.90
2019-03-18T10:00:19.669Z,63.00
2019-03-18T10:02:48.070Z,62.70
2019-03-18T10:05:16.436Z,62.20
2019-03-18T10:07:44.931Z,62.50
2019-03-18T10:10:13.795Z,62.40
2019-03-18T10:12:42.119Z,62.10
2019-03-18T10:15:12.789Z,61.90
2019-03-18T10:17:41.170Z,62.20
2019-03-18T10:20:10.025Z,61.60
2019-03-18T10:22:38.582Z,61.70
2019-03-18T10:25:07.856Z,61.70
2019-03-18T10:27:37.776Z,62.00
2019-03-18T10:30:07.507Z,62.10
2019-03-18T10:32:35.848Z,61.40
2019-03-18T10:35:05.508Z,61.70
2019-03-18T10:37:33.832Z,61.80
2019-03-18T10:40:02.212Z,62.00
2019-03-18T10:42:30.691Z,62.40
2019-03-18T10:44:59.133Z,62.20
2019-03-18T10:47:27.470Z,62.20
2019-03-18T10:49:55.998Z,62.10
2019-03-18T10:52:24.490Z,61.60
2019-03-18T10:54:52.859Z,61.00
2019-03-18T10:57:21.339Z,61.00
2019-03-18T10:59:49.674Z,61.60
2019-03-18T11:02:18.147Z,61.00
2019-03-18T11:04:46.608Z,61.00
2019-03-18T11:07:15.009Z,59.70
2019-03-18T11:09:43.488Z,60.00
2019-03-18T11:12:11.862Z,60.60
2019-03-18T11:14:40.259Z,60.00
2019-03-18T11:17:08.614Z,59.90
2019-03-18T11:19:37.098Z,59.30
2019-03-18T11:22:05.540Z,59.60
2019-03-18T11:24:33.963Z,59.10
2019-03-18T11:27:02.357Z,58.20
2019-03-18T11:29:30.784Z,59.00
2019-03-18T11:31:59.159Z,58.10
2019-03-18T11:34:27.545Z,58.30
2019-03-18T11:36:55.975Z,57.60
2019-03-18T11:39:24.441Z,57.20
2019-03-18T11:41:53.039Z,57.20
2019-03-18T11:44:21.493Z,57.20
2019-03-18T11:46:49.896Z,56.60
2019-03-18T11:49:18.274Z,58.10
2019-03-18T11:51:46.701Z,58.60
2019-03-18T11:54:15.099Z,57.20
2019-03-18T11:56:43.483Z,55.90
2019-03-18T11:59:11.962Z,56.00
2019-03-18T12:01:40.400Z,54.90
2019-03-18T12:04:08.862Z,54.30
2019-03-18T12:06:37.269Z,53.90
2019-03-18T12:09:06.530Z,53.30
2019-03-18T12:11:34.988Z,53.80
2019-03-18T12:14:03.463Z,54.20
2019-03-18T12:16:31.967Z,54.50
2019-03-18T12:19:00.326Z,54.60
2019-03-18T12:21:28.753Z,54.60
2019-03-18T12:23:57.133Z,54.70
2019-03-18T12:26:25.667Z,54.50
2019-03-18T12:28:54.098Z,54.20
2019-03-18T12:31:22.658Z,54.60
2019-03-18T12:33:51.079Z,53.70
2019-03-18T12:36:19.777Z,53.30
2019-03-18T12:38:48.223Z,52.30
2019-03-18T12:41:16.703Z,52.90
2019-03-18T12:43:45.186Z,54.50
2019-03-18T12:46:13.629Z,55.30
2019-03-18T12:48:42.136Z,57.40
2019-03-18T12:51:11.379Z,57.00
2019-03-18T12:53:40.294Z,56.80
2019-03-18T12:56:08.674Z,56.00
2019-03-18T12:58:37.196Z,56.40
2019-03-18T13:01:12.464Z,56.30
2019-03-18T13:03:35.858Z,55.70
2019-03-18T13:06:06.047Z,56.20
2019-03-18T13:08:34.503Z,56.70
2019-03-18T13:11:05.282Z,56.70
2019-03-18T13:13:33.783Z,57.80
2019-03-18T13:16:02.123Z,60.50
2019-03-18T13:18:30.530Z,62.60
2019-03-18T13:21:07.678Z,65.00
2019-03-18T13:23:28.552Z,66.90
2019-03-18T13:25:58.642Z,67.70
2019-03-18T13:28:27.180Z,69.00
2019-03-18T13:30:55.519Z,67.00
2019-03-18T13:33:23.976Z,66.60
2019-03-18T13:35:52.412Z,65.20
2019-03-18T13:38:20.902Z,64.20
2019-03-18T13:40:49.322Z,63.90
2019-03-18T13:43:17.694Z,61.50
2019-03-18T13:45:55.203Z,58.50
2019-03-18T13:48:16.193Z,57.80
2019-03-18T13:50:44.593Z,57.80
2019-03-18T13:53:13.122Z,55.00
2019-03-18T13:55:41.548Z,55.00
2019-03-18T13:58:10.069Z,55.30
2019-03-18T14:00:38.554Z,55.20
2019-03-18T14:03:07.103Z,53.60
2019-03-18T14:05:35.480Z,53.10
2019-03-18T14:08:03.951Z,54.20
2019-03-18T14:10:32.371Z,56.10
2019-03-18T14:13:00.902Z,56.20
2019-03-18T14:15:29.331Z,55.50
2019-03-18T14:17:57.783Z,52.50
2019-03-18T14:20:27.572Z,52.60
2019-03-18T14:22:56.114Z,53.60
2019-03-18T14:25:24.698Z,53.60
2019-03-18T14:27:53.198Z,53.50
2019-03-18T14:30:22.522Z,52.50
2019-03-18T14:32:51.004Z,51.90
2019-03-18T14:35:21.683Z,49.90
2019-03-18T14:37:49.636Z,50.50
2019-03-18T14:40:21.631Z,52.10
2019-03-18T14:42:49.962Z,52.50
2019-03-18T14:45:24.646Z,53.70
2019-03-18T14:47:53.047Z,53.10
2019-03-18T14:50:21.467Z,53.20
2019-03-18T14:52:50.050Z,52.70
2019-03-18T14:55:18.847Z,52.30
2019-03-18T14:57:47.384Z,52.00
2019-03-18T15:00:23.296Z,52.30
2019-03-18T15:02:51.598Z,52.40
2019-03-18T15:05:20.147Z,52.10
2019-03-18T15:07:48.610Z,51.20
2019-03-18T15:10:19.623Z,52.30
2019-03-18T15:12:48.320Z,52.60
2019-03-18T15:15:17.829Z,51.90
2019-03-18T15:17:47.824Z,51.90
2019-03-18T15:20:21.143Z,49.90
2019-03-18T15:22:49.613Z,49.10
2019-03-18T15:25:29.632Z,48.50
2019-03-18T15:27:58.173Z,48.70
2019-03-18T15:30:26.551Z,50.40
2019-03-18T15:32:55.137Z,51.80
2019-03-18T15:35:23.660Z,53.80
2019-03-18T15:37:52.143Z,55.20
2019-03-18T15:40:24.814Z,57.40
2019-03-18T15:42:53.342Z,59.20
2019-03-18T15:45:22.329Z,61.30
2019-03-18T15:47:50.707Z,62.90
2019-03-18T15:50:24.853Z,64.90
2019-03-18T15:52:53.161Z,66.50
2019-03-18T15:55:24.109Z,67.60
2019-03-18T15:57:51.859Z,68.50
2019-03-18T16:00:25.468Z,68.60
2019-03-18T16:02:53.995Z,67.40
2019-03-18T16:05:22.478Z,64.90
2019-03-18T16:07:50.907Z,65.00
2019-03-18T16:10:20.250Z,63.40
2019-03-18T16:12:48.641Z,62.70
2019-03-18T16:15:17.853Z,62.70
2019-03-18T16:17:46.277Z,63.80
2019-03-18T16:20:22.946Z,65.30
2019-03-18T16:22:51.312Z,66.00
2019-03-18T16:25:19.736Z,66.40
2019-03-18T16:27:48.060Z,67.00
2019-03-18T16:30:18.569Z,66.80
2019-03-18T16:32:47.021Z,67.00
2019-03-18T16:35:16.512Z,66.30
2019-03-18T16:37:45.101Z,66.70
2019-03-18T16:40:14.976Z,66.80
2019-03-18T16:42:43.435Z,67.00
2019-03-18T16:45:14.499Z,67.30
2019-03-18T16:47:42.891Z,67.40
2019-03-18T16:50:14.116Z,67.00
2019-03-18T16:52:42.470Z,66.80
2019-03-18T16:55:11.075Z,66.90
2019-03-18T16:57:39.617Z,67.10
2019-03-18T17:00:11.230Z,67.00
2019-03-18T17:02:39.818Z,66.70
2019-03-18T17:05:08.558Z,66.80
2019-03-18T17:07:36.909Z,66.90
2019-03-18T17:10:08.764Z,67.20
2019-03-18T17:12:37.143Z,66.50
2019-03-18T17:15:08.343Z,66.30
2019-03-18T17:17:36.697Z,66.50
2019-03-18T17:20:10.344Z,66.20
2019-03-18T17:22:48.201Z,66.20
2019-03-18T17:25:11.580Z,66.50
2019-03-18T17:27:40.022Z,66.40
2019-03-18T17:30:13.968Z,66.80
2019-03-18T17:32:42.401Z,67.10
2019-03-18T17:35:10.827Z,69.10
2019-03-18T17:37:39.179Z,70.50
2019-03-18T17:40:13.008Z,71.60
2019-03-18T17:42:41.444Z,71.60
2019-03-18T17:45:11.899Z,72.10
2019-03-18T17:47:40.304Z,73.20
2019-03-18T17:50:24.043Z,75.40
2019-03-18T17:53:02.570Z,77.80
2019-03-18T17:55:22.508Z,78.60
2019-03-18T17:57:50.946Z,77.20
2019-03-18T18:00:24.027Z,75.80
2019-03-18T18:02:52.910Z,75.50
2019-03-18T18:05:21.581Z,76.10
2019-03-18T18:07:52.871Z,76.30
2019-03-18T18:10:21.274Z,77.40
2019-03-18T18:12:49.705Z,76.60
2019-03-18T18:15:18.133Z,76.70
2019-03-18T18:17:46.570Z,77.40
2019-03-18T18:20:17.656Z,77.60
2019-03-18T18:22:46.058Z,79.10
2019-03-18T18:25:15.577Z,78.00
2019-03-18T18:27:44.116Z,78.30
2019-03-18T18:30:14.260Z,78.40
2019-03-18T18:32:42.613Z,78.50
2019-03-18T18:35:11.571Z,78.40
2019-03-18T18:37:39.948Z,78.30
2019-03-18T18:40:17.048Z,77.70
2019-03-18T18:42:45.550Z,77.40
2019-03-18T18:45:13.887Z,77.10
2019-03-18T18:47:42.302Z,76.60
2019-03-18T18:50:19.351Z,76.50
2019-03-18T18:52:47.846Z,76.30
2019-03-18T18:55:16.346Z,76.00
2019-03-18T18:57:44.787Z,76.20
2019-03-18T19:00:17.975Z,75.60
2019-03-18T19:02:46.406Z,75.90
2019-03-18T19:05:15.594Z,75.70
2019-03-18T19:07:43.982Z,75.60
2019-03-18T19:10:17.561Z,75.30
2019-03-18T19:12:45.992Z,75.10
2019-03-18T19:15:29.166Z,75.00
2019-03-18T19:17:57.632Z,74.70
2019-03-18T19:20:26.131Z,74.70
2019-03-18T19:22:59.187Z,74.50
2019-03-18T19:25:30.597Z,74.30
2019-03-18T19:28:03.259Z,74.40
2019-03-18T19:30:34.073Z,74.50
2019-03-18T19:33:07.119Z,75.00
2019-03-18T19:35:39.250Z,74.50
2019-03-18T19:38:07.581Z,74.30
2019-03-18T19:40:36.099Z,74.10
2019-03-18T19:43:04.532Z,74.00
2019-03-18T19:45:33.017Z,74.90
2019-03-18T19:48:01.401Z,73.90
2019-03-18T19:50:33.077Z,73.70
2019-03-18T19:53:01.469Z,73.60
2019-03-18T19:55:29.932Z,73.40
2019-03-18T19:57:58.289Z,73.50
2019-03-18T20:00:31.255Z,73.20
2019-03-18T20:02:59.887Z,73.40
2019-03-18T20:05:28.340Z,73.20
2019-03-18T20:07:56.745Z,73.10
2019-03-18T20:10:25.172Z,73.00
2019-03-18T20:12:53.568Z,73.00
2019-03-18T20:15:22.052Z,74.10
2019-03-18T20:17:50.434Z,73.30
2019-03-18T20:20:21.170Z,73.10
2019-03-18T20:22:52.323Z,73.20
2019-03-18T20:25:20.878Z,74.70
2019-03-18T20:27:49.372Z,73.60
2019-03-18T20:30:22.531Z,73.70
2019-03-18T20:32:50.964Z,73.80
2019-03-18T20:35:24.370Z,73.90
2019-03-18T20:37:52.797Z,73.90
2019-03-18T20:40:21.429Z,73.70
2019-03-18T20:42:49.962Z,73.90
2019-03-18T20:45:23.738Z,73.90
2019-03-18T20:47:52.091Z,74.30
2019-03-18T20:50:25.338Z,74.50
2019-03-18T20:52:53.810Z,74.50
2019-03-18T20:55:22.326Z,74.70
2019-03-18T20:57:50.754Z,74.80
2019-03-18T21:00:21.466Z,74.70
2019-03-18T21:02:52.571Z,74.60
2019-03-18T21:05:21.112Z,74.50
2019-03-18T21:07:49.774Z,74.50
2019-03-18T21:10:20.118Z,74.20
2019-03-18T21:12:48.603Z,74.10
2019-03-18T21:15:17.576Z,74.10
2019-03-18T21:17:46.078Z,74.00
2019-03-18T21:20:20.131Z,73.70
2019-03-18T21:22:48.479Z,73.50
2019-03-18T21:25:16.930Z,73.50
2019-03-18T21:27:45.325Z,73.30
2019-03-18T21:30:15.635Z,73.10
2019-03-18T21:32:43.310Z,73.10
2019-03-18T21:35:11.656Z,72.90
2019-03-18T21:37:40.034Z,73.50
2019-03-18T21:40:16.089Z,74.10
2019-03-18T21:42:44.488Z,74.20
2019-03-18T21:45:23.638Z,74.40
2019-03-18T21:47:52.489Z,74.20
2019-03-18T21:50:20.992Z,74.40
2019-03-18T21:52:49.424Z,74.50
2019-03-18T21:55:17.842Z,74.40
2019-03-18T21:57:46.220Z,74.50
2019-03-18T22:00:17.399Z,74.60
2019-03-18T22:02:45.880Z,74.90
2019-03-18T22:05:14.558Z,75.00
2019-03-18T22:07:42.969Z,75.10
2019-03-18T22:10:16.359Z,75.20
2019-03-18T22:12:44.736Z,74.70
2019-03-18T22:15:13.992Z,74.50
2019-03-18T22:17:43.209Z,74.50
2019-03-18T22:20:14.012Z,74.60
2019-03-18T22:22:42.423Z,74.50
2019-03-18T22:25:12.503Z,74.20
2019-03-18T22:27:41.006Z,74.20
2019-03-18T22:30:16.807Z,74.40
2019-03-18T22:32:45.207Z,74.50
2019-03-18T22:35:13.750Z,74.60
2019-03-18T22:37:42.283Z,74.50
2019-03-18T22:40:12.144Z,74.30
2019-03-18T22:42:40.523Z,74.30
2019-03-18T22:45:14.175Z,74.50
2019-03-18T22:47:42.606Z,74.50
2019-03-18T22:50:19.689Z,74.70
2019-03-18T22:52:48.126Z,74.70
2019-03-18T22:55:16.664Z,74.60
2019-03-18T22:57:45.094Z,74.90
2019-03-18T23:00:26.866Z,74.90
2019-03-18T23:02:55.413Z,75.00
2019-03-18T23:05:23.955Z,75.00
2019-03-18T23:07:52.490Z,74.50
2019-03-18T23:10:20.919Z,75.30
2019-03-18T23:12:49.525Z,74.90
2019-03-18T23:15:17.915Z,74.70
2019-03-18T23:17:46.432Z,74.50
2019-03-18T23:20:14.798Z,74.40
2019-03-18T23:22:43.191Z,74.40
2019-03-18T23:25:11.574Z,74.30
2019-03-18T23:27:40.037Z,74.40
2019-03-18T23:30:13.369Z,74.60
2019-03-18T23:32:41.833Z,74.40
2019-03-18T23:35:13.043Z,74.60
2019-03-18T23:37:41.734Z,74.60
2019-03-18T23:40:11.895Z,74.50
2019-03-18T23:42:39.778Z,74.60
2019-03-18T23:45:09.450Z,74.20
2019-03-18T23:47:37.937Z,74.20
2019-03-18T23:50:09.450Z,75.30
2019-03-18T23:52:37.996Z,74.20
2019-03-18T23:55:18.149Z,73.90
2019-03-18T23:57:38.761Z,74.10
